Olney Springs, Colorado
Current Conditions -  °F | °C
As of 4:53 PM on Saturday 22 Nov 2014 (Local Time) from KLHX Reporting Station
Clear Clear  
Wind Chill: 45°   Ceiling: Unl
Heat Index: 49°   Visibility: 10mi
Dew Point: 30°   Wind: 9mph
Humidity: 48%   Direction: 230°SW
Pressure: 29.56"   Gusts: NA
Location:  38.17°N, 103.94°W
Report Text: KLHX 222353Z AUTO 23008KT 10SM CLR 09/M01 A2956 RMK AO2 SLP999 T00941011 10194 20094 56014 $
Loading
Personal Weather Stations






























Interactive Weather Map New forecast layout! Learn more

10-Day Weather Forecast

Advertisements
Track Severe Weather on mobile